sensor_id;sensor_type;location;lat;lon;timestamp;P1;durP1;ratioP1;P2;durP2;ratioP2
19617;SDS011;9956;51.006;13.670;2023-04-24T00:02:21;12.07;;;10.60;;
19617;SDS011;9956;51.006;13.670;2023-04-24T00:07:22;11.27;;;10.13;;
19617;SDS011;9956;51.006;13.670;2023-04-24T00:12:22;11.43;;;10.23;;
19617;SDS011;9956;51.006;13.670;2023-04-24T00:17:23;12.55;;;11.25;;
19617;SDS011;9956;51.006;13.670;2023-04-24T00:22:24;13.60;;;11.10;;
19617;SDS011;9956;51.006;13.670;2023-04-24T00:27:25;12.10;;;10.95;;
19617;SDS011;9956;51.006;13.670;2023-04-24T00:32:25;12.70;;;11.48;;
19617;SDS011;9956;51.006;13.670;2023-04-24T00:37:26;12.68;;;11.50;;
19617;SDS011;9956;51.006;13.670;2023-04-24T00:42:26;12.55;;;11.32;;
19617;SDS011;9956;51.006;13.670;2023-04-24T00:47:27;12.80;;;11.50;;
19617;SDS011;9956;51.006;13.670;2023-04-24T00:52:28;11.98;;;10.82;;
19617;SDS011;9956;51.006;13.670;2023-04-24T00:57:31;11.68;;;10.48;;
19617;SDS011;9956;51.006;13.670;2023-04-24T01:02:31;12.77;;;10.55;;
19617;SDS011;9956;51.006;13.670;2023-04-24T01:07:34;12.43;;;11.23;;
19617;SDS011;9956;51.006;13.670;2023-04-24T01:12:35;14.40;;;12.10;;
19617;SDS011;9956;51.006;13.670;2023-04-24T01:17:35;11.73;;;10.63;;
19617;SDS011;9956;51.006;13.670;2023-04-24T01:22:36;11.45;;;10.05;;
19617;SDS011;9956;51.006;13.670;2023-04-24T01:27:36;11.68;;;10.40;;
19617;SDS011;9956;51.006;13.670;2023-04-24T01:32:38;11.43;;;10.38;;
19617;SDS011;9956;51.006;13.670;2023-04-24T01:37:40;13.88;;;11.63;;
19617;SDS011;9956;51.006;13.670;2023-04-24T01:42:40;11.73;;;10.60;;
19617;SDS011;9956;51.006;13.670;2023-04-24T01:47:41;13.02;;;11.73;;
19617;SDS011;9956;51.006;13.670;2023-04-24T01:52:42;11.35;;;10.20;;
19617;SDS011;9956;51.006;13.670;2023-04-24T01:57:43;12.48;;;11.30;;
19617;SDS011;9956;51.006;13.670;2023-04-24T02:02:44;12.50;;;10.45;;
19617;SDS011;9956;51.006;13.670;2023-04-24T02:07:44;11.60;;;10.57;;
19617;SDS011;9956;51.006;13.670;2023-04-24T02:12:45;11.43;;;9.65;;
19617;SDS011;9956;51.006;13.670;2023-04-24T02:17:45;10.18;;;9.15;;
19617;SDS011;9956;51.006;13.670;2023-04-24T02:22:46;10.73;;;9.73;;
19617;SDS011;9956;51.006;13.670;2023-04-24T02:27:46;12.25;;;11.10;;
19617;SDS011;9956;51.006;13.670;2023-04-24T02:32:47;10.98;;;9.88;;
19617;SDS011;9956;51.006;13.670;2023-04-24T02:37:47;11.00;;;9.90;;
19617;SDS011;9956;51.006;13.670;2023-04-24T02:42:47;14.07;;;10.75;;
19617;SDS011;9956;51.006;13.670;2023-04-24T02:47:48;10.63;;;9.52;;
19617;SDS011;9956;51.006;13.670;2023-04-24T02:52:48;9.35;;;8.43;;
19617;SDS011;9956;51.006;13.670;2023-04-24T02:57:49;7.50;;;6.78;;
19617;SDS011;9956;51.006;13.670;2023-04-24T03:02:50;4.55;;;4.15;;
19617;SDS011;9956;51.006;13.670;2023-04-24T03:07:50;3.58;;;3.28;;
19617;SDS011;9956;51.006;13.670;2023-04-24T03:12:52;3.20;;;2.90;;
19617;SDS011;9956;51.006;13.670;2023-04-24T03:17:54;3.30;;;2.78;;
19617;SDS011;9956;51.006;13.670;2023-04-24T03:22:55;5.35;;;3.08;;
19617;SDS011;9956;51.006;13.670;2023-04-24T03:27:57;4.53;;;2.55;;
19617;SDS011;9956;51.006;13.670;2023-04-24T03:33:07;3.10;;;2.30;;
19617;SDS011;9956;51.006;13.670;2023-04-24T03:38:11;4.00;;;2.30;;
19617;SDS011;9956;51.006;13.670;2023-04-24T03:43:18;2.67;;;1.50;;
19617;SDS011;9956;51.006;13.670;2023-04-24T03:48:20;1.25;;;1.10;;
19617;SDS011;9956;51.006;13.670;2023-04-24T03:53:21;1.70;;;1.10;;
19617;SDS011;9956;51.006;13.670;2023-04-24T03:58:23;0.70;;;0.70;;
19617;SDS011;9956;51.006;13.670;2023-04-24T04:03:23;1.42;;;1.10;;
19617;SDS011;9956;51.006;13.670;2023-04-24T04:08:25;0.90;;;0.65;;
19617;SDS011;9956;51.006;13.670;2023-04-24T04:13:26;1.90;;;0.90;;
19617;SDS011;9956;51.006;13.670;2023-04-24T04:18:27;2.10;;;0.90;;
19617;SDS011;9956;51.006;13.670;2023-04-24T04:23:28;2.67;;;0.98;;
19617;SDS011;9956;51.006;13.670;2023-04-24T04:28:41;1.73;;;0.93;;
19617;SDS011;9956;51.006;13.670;2023-04-24T04:33:41;1.02;;;0.82;;
19617;SDS011;9956;51.006;13.670;2023-04-24T04:38:43;1.73;;;0.80;;
19617;SDS011;9956;51.006;13.670;2023-04-24T04:44:07;1.30;;;0.75;;
19617;SDS011;9956;51.006;13.670;2023-04-24T04:49:09;1.23;;;0.80;;
19617;SDS011;9956;51.006;13.670;2023-04-24T04:54:11;1.27;;;0.77;;
19617;SDS011;9956;51.006;13.670;2023-04-24T04:59:12;2.15;;;0.90;;
19617;SDS011;9956;51.006;13.670;2023-04-24T05:04:14;2.53;;;0.95;;
19617;SDS011;9956;51.006;13.670;2023-04-24T05:09:15;1.05;;;0.70;;
19617;SDS011;9956;51.006;13.670;2023-04-24T05:14:25;1.40;;;0.75;;
19617;SDS011;9956;51.006;13.670;2023-04-24T05:19:27;1.00;;;0.90;;
19617;SDS011;9956;51.006;13.670;2023-04-24T05:24:28;1.27;;;1.00;;
19617;SDS011;9956;51.006;13.670;2023-04-24T05:29:43;1.05;;;0.80;;
19617;SDS011;9956;51.006;13.670;2023-04-24T05:34:44;2.67;;;0.77;;
19617;SDS011;9956;51.006;13.670;2023-04-24T05:39:45;3.42;;;1.15;;
19617;SDS011;9956;51.006;13.670;2023-04-24T05:44:45;1.48;;;0.63;;
19617;SDS011;9956;51.006;13.670;2023-04-24T05:49:46;2.85;;;1.02;;
19617;SDS011;9956;51.006;13.670;2023-04-24T05:54:46;2.10;;;1.00;;
19617;SDS011;9956;51.006;13.670;2023-04-24T05:59:52;3.38;;;1.00;;
19617;SDS011;9956;51.006;13.670;2023-04-24T06:04:54;2.35;;;1.15;;
19617;SDS011;9956;51.006;13.670;2023-04-24T06:09:55;2.72;;;0.77;;
19617;SDS011;9956;51.006;13.670;2023-04-24T06:14:57;1.77;;;0.93;;
19617;SDS011;9956;51.006;13.670;2023-04-24T06:20:24;2.63;;;1.20;;
19617;SDS011;9956;51.006;13.670;2023-04-24T06:25:25;0.88;;;0.65;;
19617;SDS011;9956;51.006;13.670;2023-04-24T06:30:27;2.03;;;0.70;;
19617;SDS011;9956;51.006;13.670;2023-04-24T06:35:29;1.38;;;0.85;;
19617;SDS011;9956;51.006;13.670;2023-04-24T06:40:30;3.25;;;1.05;;
19617;SDS011;9956;51.006;13.670;2023-04-24T06:45:30;2.95;;;0.70;;
19617;SDS011;9956;51.006;13.670;2023-04-24T06:50:31;0.80;;;0.70;;
19617;SDS011;9956;51.006;13.670;2023-04-24T06:55:31;2.88;;;1.10;;
19617;SDS011;9956;51.006;13.670;2023-04-24T07:00:32;2.45;;;0.77;;
19617;SDS011;9956;51.006;13.670;2023-04-24T07:05:32;3.80;;;0.60;;
19617;SDS011;9956;51.006;13.670;2023-04-24T07:10:35;1.05;;;0.65;;
19617;SDS011;9956;51.006;13.670;2023-04-24T07:15:36;2.15;;;0.50;;
19617;SDS011;9956;51.006;13.670;2023-04-24T07:20:36;0.85;;;0.60;;
19617;SDS011;9956;51.006;13.670;2023-04-24T07:25:36;0.93;;;0.60;;
19617;SDS011;9956;51.006;13.670;2023-04-24T07:30:38;1.58;;;0.55;;
19617;SDS011;9956;51.006;13.670;2023-04-24T07:35:39;1.10;;;0.50;;
19617;SDS011;9956;51.006;13.670;2023-04-24T07:40:39;2.42;;;0.47;;
19617;SDS011;9956;51.006;13.670;2023-04-24T07:45:40;1.02;;;0.50;;
19617;SDS011;9956;51.006;13.670;2023-04-24T07:50:40;1.02;;;0.40;;
19617;SDS011;9956;51.006;13.670;2023-04-24T07:55:41;1.30;;;0.50;;
19617;SDS011;9956;51.006;13.670;2023-04-24T08:00:41;3.72;;;0.63;;
19617;SDS011;9956;51.006;13.670;2023-04-24T08:05:42;1.85;;;0.40;;
19617;SDS011;9956;51.006;13.670;2023-04-24T08:10:42;1.48;;;0.52;;
19617;SDS011;9956;51.006;13.670;2023-04-24T08:15:44;1.10;;;0.40;;
19617;SDS011;9956;51.006;13.670;2023-04-24T08:20:44;1.08;;;0.30;;
19617;SDS011;9956;51.006;13.670;2023-04-24T08:25:45;1.65;;;0.30;;
19617;SDS011;9956;51.006;13.670;2023-04-24T08:30:46;2.13;;;0.57;;
19617;SDS011;9956;51.006;13.670;2023-04-24T08:35:54;0.98;;;0.60;;
19617;SDS011;9956;51.006;13.670;2023-04-24T08:40:56;2.22;;;0.52;;
19617;SDS011;9956;51.006;13.670;2023-04-24T08:45:57;1.15;;;0.50;;
19617;SDS011;9956;51.006;13.670;2023-04-24T08:50:59;1.98;;;0.60;;
19617;SDS011;9956;51.006;13.670;2023-04-24T08:55:59;0.70;;;0.38;;
19617;SDS011;9956;51.006;13.670;2023-04-24T09:01:01;2.10;;;0.63;;
19617;SDS011;9956;51.006;13.670;2023-04-24T09:06:03;2.63;;;0.60;;
19617;SDS011;9956;51.006;13.670;2023-04-24T09:11:04;1.88;;;0.65;;
19617;SDS011;9956;51.006;13.670;2023-04-24T09:16:04;1.52;;;0.40;;
19617;SDS011;9956;51.006;13.670;2023-04-24T09:21:09;1.05;;;0.60;;
19617;SDS011;9956;51.006;13.670;2023-04-24T09:26:10;1.73;;;0.52;;
19617;SDS011;9956;51.006;13.670;2023-04-24T09:31:14;0.93;;;0.40;;
19617;SDS011;9956;51.006;13.670;2023-04-24T09:36:18;1.02;;;0.50;;
19617;SDS011;9956;51.006;13.670;2023-04-24T09:41:18;2.72;;;0.60;;
19617;SDS011;9956;51.006;13.670;2023-04-24T09:46:19;1.08;;;0.43;;
19617;SDS011;9956;51.006;13.670;2023-04-24T09:51:33;2.40;;;0.50;;
19617;SDS011;9956;51.006;13.670;2023-04-24T09:56:35;1.52;;;0.57;;
19617;SDS011;9956;51.006;13.670;2023-04-24T10:01:36;1.58;;;0.43;;
19617;SDS011;9956;51.006;13.670;2023-04-24T10:06:38;3.08;;;0.63;;
19617;SDS011;9956;51.006;13.670;2023-04-24T10:11:43;3.45;;;0.40;;
19617;SDS011;9956;51.006;13.670;2023-04-24T10:16:45;2.60;;;0.47;;
19617;SDS011;9956;51.006;13.670;2023-04-24T10:21:52;2.28;;;0.60;;
19617;SDS011;9956;51.006;13.670;2023-04-24T10:26:53;1.25;;;0.45;;
19617;SDS011;9956;51.006;13.670;2023-04-24T10:31:54;2.28;;;0.50;;
19617;SDS011;9956;51.006;13.670;2023-04-24T10:36:55;2.25;;;0.60;;
19617;SDS011;9956;51.006;13.670;2023-04-24T10:41:56;3.05;;;0.70;;
19617;SDS011;9956;51.006;13.670;2023-04-24T10:46:57;1.90;;;0.73;;
19617;SDS011;9956;51.006;13.670;2023-04-24T10:52:04;1.48;;;0.40;;
19617;SDS011;9956;51.006;13.670;2023-04-24T11:02:35;2.22;;;0.60;;
19617;SDS011;9956;51.006;13.670;2023-04-24T11:13:17;1.15;;;0.50;;
19617;SDS011;9956;51.006;13.670;2023-04-24T11:18:21;2.65;;;1.20;;
19617;SDS011;9956;51.006;13.670;2023-04-24T11:23:22;0.65;;;0.43;;
19617;SDS011;9956;51.006;13.670;2023-04-24T11:28:23;0.63;;;0.52;;
19617;SDS011;9956;51.006;13.670;2023-04-24T11:33:24;0.98;;;0.40;;
19617;SDS011;9956;51.006;13.670;2023-04-24T11:38:25;1.40;;;0.40;;
19617;SDS011;9956;51.006;13.670;2023-04-24T11:43:25;0.52;;;0.40;;
19617;SDS011;9956;51.006;13.670;2023-04-24T11:48:26;1.50;;;0.70;;
19617;SDS011;9956;51.006;13.670;2023-04-24T11:53:26;1.33;;;0.57;;
19617;SDS011;9956;51.006;13.670;2023-04-24T11:58:27;0.88;;;0.70;;
19617;SDS011;9956;51.006;13.670;2023-04-24T12:03:27;2.08;;;0.60;;
19617;SDS011;9956;51.006;13.670;2023-04-24T12:08:28;2.22;;;0.80;;
19617;SDS011;9956;51.006;13.670;2023-04-24T12:13:29;6.22;;;0.90;;
19617;SDS011;9956;51.006;13.670;2023-04-24T12:18:30;3.67;;;0.75;;
19617;SDS011;9956;51.006;13.670;2023-04-24T12:23:33;1.60;;;0.80;;
19617;SDS011;9956;51.006;13.670;2023-04-24T12:28:36;2.42;;;0.85;;
19617;SDS011;9956;51.006;13.670;2023-04-24T12:33:37;3.90;;;0.68;;
19617;SDS011;9956;51.006;13.670;2023-04-24T12:38:38;0.93;;;0.60;;
19617;SDS011;9956;51.006;13.670;2023-04-24T12:43:54;4.35;;;0.80;;
19617;SDS011;9956;51.006;13.670;2023-04-24T12:48:56;4.28;;;0.90;;
19617;SDS011;9956;51.006;13.670;2023-04-24T12:53:58;2.50;;;0.60;;
19617;SDS011;9956;51.006;13.670;2023-04-24T12:58:58;0.75;;;0.63;;
19617;SDS011;9956;51.006;13.670;2023-04-24T13:03:59;0.95;;;0.50;;
19617;SDS011;9956;51.006;13.670;2023-04-24T13:09:00;4.45;;;0.80;;
19617;SDS011;9956;51.006;13.670;2023-04-24T13:14:01;2.75;;;0.55;;
19617;SDS011;9956;51.006;13.670;2023-04-24T13:19:01;1.75;;;0.60;;
19617;SDS011;9956;51.006;13.670;2023-04-24T13:24:02;2.35;;;0.55;;
19617;SDS011;9956;51.006;13.670;2023-04-24T13:29:04;1.58;;;0.73;;
19617;SDS011;9956;51.006;13.670;2023-04-24T13:34:05;4.65;;;1.00;;
19617;SDS011;9956;51.006;13.670;2023-04-24T13:39:05;4.18;;;1.08;;
19617;SDS011;9956;51.006;13.670;2023-04-24T13:44:06;1.20;;;0.95;;
19617;SDS011;9956;51.006;13.670;2023-04-24T13:49:07;3.75;;;0.80;;
19617;SDS011;9956;51.006;13.670;2023-04-24T13:54:08;2.35;;;0.93;;
19617;SDS011;9956;51.006;13.670;2023-04-24T13:59:08;1.25;;;0.77;;
19617;SDS011;9956;51.006;13.670;2023-04-24T14:04:09;1.20;;;0.75;;
19617;SDS011;9956;51.006;13.670;2023-04-24T14:09:09;1.85;;;0.75;;
19617;SDS011;9956;51.006;13.670;2023-04-24T14:14:10;2.03;;;0.98;;
19617;SDS011;9956;51.006;13.670;2023-04-24T14:19:10;1.60;;;0.98;;
19617;SDS011;9956;51.006;13.670;2023-04-24T14:24:11;1.92;;;0.82;;
19617;SDS011;9956;51.006;13.670;2023-04-24T14:29:11;3.72;;;1.20;;
19617;SDS011;9956;51.006;13.670;2023-04-24T14:34:13;1.40;;;1.00;;
19617;SDS011;9956;51.006;13.670;2023-04-24T14:39:14;2.08;;;0.80;;
19617;SDS011;9956;51.006;13.670;2023-04-24T14:44:14;2.40;;;0.90;;
19617;SDS011;9956;51.006;13.670;2023-04-24T14:49:15;2.38;;;0.80;;
19617;SDS011;9956;51.006;13.670;2023-04-24T14:54:15;1.40;;;0.80;;
19617;SDS011;9956;51.006;13.670;2023-04-24T14:59:16;1.35;;;0.73;;
19617;SDS011;9956;51.006;13.670;2023-04-24T15:04:16;1.65;;;0.82;;
19617;SDS011;9956;51.006;13.670;2023-04-24T15:09:17;1.98;;;1.00;;
19617;SDS011;9956;51.006;13.670;2023-04-24T15:14:17;1.77;;;0.80;;
19617;SDS011;9956;51.006;13.670;2023-04-24T15:19:21;1.23;;;1.13;;
19617;SDS011;9956;51.006;13.670;2023-04-24T15:24:22;4.10;;;1.45;;
19617;SDS011;9956;51.006;13.670;2023-04-24T15:29:22;4.22;;;2.50;;
19617;SDS011;9956;51.006;13.670;2023-04-24T15:34:23;4.82;;;1.05;;
19617;SDS011;9956;51.006;13.670;2023-04-24T15:39:23;1.13;;;0.70;;
19617;SDS011;9956;51.006;13.670;2023-04-24T15:44:24;1.55;;;1.45;;
19617;SDS011;9956;51.006;13.670;2023-04-24T15:49:25;1.77;;;1.27;;
19617;SDS011;9956;51.006;13.670;2023-04-24T15:54:25;1.85;;;1.00;;
19617;SDS011;9956;51.006;13.670;2023-04-24T15:59:26;0.98;;;0.90;;
19617;SDS011;9956;51.006;13.670;2023-04-24T16:04:27;1.92;;;1.15;;
19617;SDS011;9956;51.006;13.670;2023-04-24T16:09:28;1.27;;;1.17;;
19617;SDS011;9956;51.006;13.670;2023-04-24T16:14:28;1.60;;;1.20;;
19617;SDS011;9956;51.006;13.670;2023-04-24T16:19:29;1.77;;;1.40;;
19617;SDS011;9956;51.006;13.670;2023-04-24T16:24:30;4.40;;;1.60;;
19617;SDS011;9956;51.006;13.670;2023-04-24T16:29:30;1.35;;;1.25;;
19617;SDS011;9956;51.006;13.670;2023-04-24T16:34:31;2.03;;;1.27;;
19617;SDS011;9956;51.006;13.670;2023-04-24T16:39:32;1.55;;;1.40;;
19617;SDS011;9956;51.006;13.670;2023-04-24T16:44:32;1.33;;;1.08;;
19617;SDS011;9956;51.006;13.670;2023-04-24T16:49:33;2.78;;;0.70;;
19617;SDS011;9956;51.006;13.670;2023-04-24T16:54:34;2.78;;;1.17;;
19617;SDS011;9956;51.006;13.670;2023-04-24T16:59:38;1.20;;;1.10;;
19617;SDS011;9956;51.006;13.670;2023-04-24T17:04:39;1.20;;;1.08;;
19617;SDS011;9956;51.006;13.670;2023-04-24T17:09:39;1.35;;;1.00;;
19617;SDS011;9956;51.006;13.670;2023-04-24T17:14:40;1.08;;;0.85;;
19617;SDS011;9956;51.006;13.670;2023-04-24T17:19:40;0.80;;;0.80;;
19617;SDS011;9956;51.006;13.670;2023-04-24T17:24:41;1.02;;;0.90;;
19617;SDS011;9956;51.006;13.670;2023-04-24T17:29:41;1.27;;;0.68;;
19617;SDS011;9956;51.006;13.670;2023-04-24T17:34:42;0.63;;;0.63;;
19617;SDS011;9956;51.006;13.670;2023-04-24T17:39:42;2.40;;;0.80;;
19617;SDS011;9956;51.006;13.670;2023-04-24T17:44:43;2.33;;;0.70;;
19617;SDS011;9956;51.006;13.670;2023-04-24T17:49:43;2.85;;;0.50;;
19617;SDS011;9956;51.006;13.670;2023-04-24T17:54:44;1.63;;;0.60;;
19617;SDS011;9956;51.006;13.670;2023-04-24T17:59:44;1.40;;;0.85;;
19617;SDS011;9956;51.006;13.670;2023-04-24T18:04:45;1.40;;;0.63;;
19617;SDS011;9956;51.006;13.670;2023-04-24T18:09:45;0.90;;;0.40;;
19617;SDS011;9956;51.006;13.670;2023-04-24T18:14:46;1.38;;;0.70;;
19617;SDS011;9956;51.006;13.670;2023-04-24T18:19:47;1.15;;;0.80;;
19617;SDS011;9956;51.006;13.670;2023-04-24T18:24:47;0.57;;;0.40;;
19617;SDS011;9956;51.006;13.670;2023-04-24T18:29:48;0.95;;;0.68;;
19617;SDS011;9956;51.006;13.670;2023-04-24T18:34:48;2.20;;;0.45;;
19617;SDS011;9956;51.006;13.670;2023-04-24T18:39:49;2.60;;;1.83;;
19617;SDS011;9956;51.006;13.670;2023-04-24T18:44:49;3.95;;;2.58;;
19617;SDS011;9956;51.006;13.670;2023-04-24T18:49:50;1.95;;;1.25;;
19617;SDS011;9956;51.006;13.670;2023-04-24T18:54:50;1.70;;;0.57;;
19617;SDS011;9956;51.006;13.670;2023-04-24T18:59:54;4.40;;;1.15;;
19617;SDS011;9956;51.006;13.670;2023-04-24T19:04:54;2.15;;;0.60;;
19617;SDS011;9956;51.006;13.670;2023-04-24T19:09:55;2.88;;;0.80;;
19617;SDS011;9956;51.006;13.670;2023-04-24T19:14:55;1.30;;;1.20;;
19617;SDS011;9956;51.006;13.670;2023-04-24T19:19:56;2.75;;;0.80;;
19617;SDS011;9956;51.006;13.670;2023-04-24T19:24:57;1.17;;;0.90;;
19617;SDS011;9956;51.006;13.670;2023-04-24T19:29:58;1.95;;;0.80;;
19617;SDS011;9956;51.006;13.670;2023-04-24T19:34:58;1.00;;;0.90;;
19617;SDS011;9956;51.006;13.670;2023-04-24T19:39:59;1.40;;;1.10;;
19617;SDS011;9956;51.006;13.670;2023-04-24T19:45:00;1.25;;;0.93;;
19617;SDS011;9956;51.006;13.670;2023-04-24T19:50:00;1.17;;;1.00;;
19617;SDS011;9956;51.006;13.670;2023-04-24T19:55:01;1.40;;;0.98;;
19617;SDS011;9956;51.006;13.670;2023-04-24T20:00:01;1.20;;;1.10;;
19617;SDS011;9956;51.006;13.670;2023-04-24T20:05:05;1.63;;;1.30;;
19617;SDS011;9956;51.006;13.670;2023-04-24T20:10:06;1.50;;;1.35;;
19617;SDS011;9956;51.006;13.670;2023-04-24T20:15:07;1.20;;;1.10;;
19617;SDS011;9956;51.006;13.670;2023-04-24T20:20:08;1.30;;;1.20;;
19617;SDS011;9956;51.006;13.670;2023-04-24T20:25:09;2.42;;;1.67;;
19617;SDS011;9956;51.006;13.670;2023-04-24T20:30:13;2.60;;;1.80;;
19617;SDS011;9956;51.006;13.670;2023-04-24T20:35:15;5.68;;;3.17;;
19617;SDS011;9956;51.006;13.670;2023-04-24T20:40:15;7.43;;;3.15;;
19617;SDS011;9956;51.006;13.670;2023-04-24T20:45:16;6.25;;;2.92;;
19617;SDS011;9956;51.006;13.670;2023-04-24T20:50:17;3.00;;;2.00;;
19617;SDS011;9956;51.006;13.670;2023-04-24T20:55:17;2.30;;;1.88;;
19617;SDS011;9956;51.006;13.670;2023-04-24T21:00:18;3.35;;;2.17;;
19617;SDS011;9956;51.006;13.670;2023-04-24T21:05:18;2.50;;;2.10;;
19617;SDS011;9956;51.006;13.670;2023-04-24T21:10:19;3.85;;;2.35;;
19617;SDS011;9956;51.006;13.670;2023-04-24T21:15:20;3.45;;;2.17;;
19617;SDS011;9956;51.006;13.670;2023-04-24T21:20:20;3.65;;;2.00;;
19617;SDS011;9956;51.006;13.670;2023-04-24T21:25:23;2.78;;;2.30;;
19617;SDS011;9956;51.006;13.670;2023-04-24T21:30:24;5.35;;;2.20;;
19617;SDS011;9956;51.006;13.670;2023-04-24T21:35:25;2.30;;;2.10;;
19617;SDS011;9956;51.006;13.670;2023-04-24T21:40:25;3.22;;;1.83;;
19617;SDS011;9956;51.006;13.670;2023-04-24T21:45:26;2.45;;;2.17;;
19617;SDS011;9956;51.006;13.670;2023-04-24T21:50:26;2.47;;;1.98;;
19617;SDS011;9956;51.006;13.670;2023-04-24T21:55:26;4.07;;;2.30;;
19617;SDS011;9956;51.006;13.670;2023-04-24T22:00:27;4.60;;;2.65;;
19617;SDS011;9956;51.006;13.670;2023-04-24T22:05:27;3.30;;;2.08;;
19617;SDS011;9956;51.006;13.670;2023-04-24T22:10:29;2.85;;;2.60;;
19617;SDS011;9956;51.006;13.670;2023-04-24T22:15:30;5.75;;;3.38;;
19617;SDS011;9956;51.006;13.670;2023-04-24T22:20:31;11.93;;;6.30;;
19617;SDS011;9956;51.006;13.670;2023-04-24T22:25:32;13.88;;;8.52;;
19617;SDS011;9956;51.006;13.670;2023-04-24T22:30:33;8.73;;;4.47;;
19617;SDS011;9956;51.006;13.670;2023-04-24T22:35:33;6.78;;;4.57;;
19617;SDS011;9956;51.006;13.670;2023-04-24T22:40:35;5.70;;;3.83;;
19617;SDS011;9956;51.006;13.670;2023-04-24T22:45:36;4.75;;;3.53;;
19617;SDS011;9956;51.006;13.670;2023-04-24T22:50:36;6.75;;;3.10;;
19617;SDS011;9956;51.006;13.670;2023-04-24T22:55:37;3.30;;;2.95;;
19617;SDS011;9956;51.006;13.670;2023-04-24T23:00:38;4.45;;;3.47;;
19617;SDS011;9956;51.006;13.670;2023-04-24T23:05:38;5.90;;;2.97;;
19617;SDS011;9956;51.006;13.670;2023-04-24T23:10:38;4.30;;;3.33;;
19617;SDS011;9956;51.006;13.670;2023-04-24T23:15:39;6.18;;;3.67;;
19617;SDS011;9956;51.006;13.670;2023-04-24T23:20:39;5.25;;;3.08;;
19617;SDS011;9956;51.006;13.670;2023-04-24T23:25:40;4.30;;;2.75;;
19617;SDS011;9956;51.006;13.670;2023-04-24T23:30:41;3.85;;;2.90;;
19617;SDS011;9956;51.006;13.670;2023-04-24T23:35:41;4.57;;;2.75;;
19617;SDS011;9956;51.006;13.670;2023-04-24T23:40:42;3.20;;;2.83;;
19617;SDS011;9956;51.006;13.670;2023-04-24T23:45:42;3.35;;;3.05;;
19617;SDS011;9956;51.006;13.670;2023-04-24T23:50:43;3.97;;;2.97;;
19617;SDS011;9956;51.006;13.670;2023-04-24T23:55:43;5.28;;;3.28;;
